Time;durP1;ratioP1;P1;durP2;ratioP2;P2;SDS_P1;SDS_P2;PMS_P1;PMS_P2;Temp;Humidity;BMP_temperature;BMP_pressure;BME280_temperature;BME280_humidity;BME280_pressure;Samples;Min_cycle;Max_cycle;Signal;HPM_P1;HPM_P2
2022/09/21 00:00:48;;;;;;;4.90;3.17;;;6.60;99.90;;;;;;5041053;28;20625;-75
2022/09/21 00:03:14;;;;;;;3.13;2.83;;;6.50;99.90;;;;;;5029033;28;20188;-75
2022/09/21 00:05:40;;;;;;;3.13;2.92;;;6.50;99.90;;;;;;5042240;28;20701;-75
2022/09/21 00:08:07;;;;;;;4.45;2.95;;;6.50;99.90;;;;;;5037140;28;20181;-74
2022/09/21 00:10:33;;;;;;;3.38;3.05;;;6.60;99.90;;;;;;5024083;28;20204;-73
2022/09/21 00:13:01;;;;;;;2.90;2.70;;;6.60;99.90;;;;;;5042058;28;20185;-74
2022/09/21 00:15:28;;;;;;;3.55;2.90;;;6.50;99.90;;;;;;5038233;28;20183;-74
2022/09/21 00:17:55;;;;;;;3.95;3.28;;;6.50;99.90;;;;;;5036337;28;20176;-74
2022/09/21 00:20:21;;;;;;;3.20;2.97;;;6.40;99.90;;;;;;5035806;28;20247;-74
2022/09/21 00:22:47;;;;;;;3.35;3.05;;;6.30;99.90;;;;;;5033500;28;20204;-74
2022/09/21 00:25:14;;;;;;;3.28;2.97;;;6.20;99.90;;;;;;5043400;28;20276;-74
2022/09/21 00:27:40;;;;;;;3.35;3.13;;;6.20;99.90;;;;;;5035001;28;20245;-74
2022/09/21 00:30:06;;;;;;;3.47;3.17;;;6.10;99.90;;;;;;5041110;28;20255;-74
2022/09/21 00:32:34;;;;;;;3.50;3.20;;;6.00;99.90;;;;;;5035710;28;20173;-74
2022/09/21 00:35:01;;;;;;;3.05;2.85;;;6.00;99.90;;;;;;5031763;28;20190;-75
2022/09/21 00:37:28;;;;;;;4.38;3.15;;;5.90;99.90;;;;;;5031297;28;20180;-74
2022/09/21 00:39:54;;;;;;;3.35;3.05;;;6.00;99.90;;;;;;5041543;28;20188;-74
2022/09/21 00:42:23;;;;;;;3.65;3.30;;;6.00;99.90;;;;;;5042357;28;20202;-74
2022/09/21 00:44:49;;;;;;;3.17;2.80;;;6.00;99.90;;;;;;5036215;28;20311;-74
2022/09/21 00:47:22;;;;;;;2.90;2.70;;;6.00;99.90;;;;;;5034725;28;20183;-74
2022/09/21 00:49:53;;;;;;;3.20;2.90;;;6.00;99.90;;;;;;5040170;28;20168;-74
2022/09/21 00:52:20;;;;;;;4.25;2.88;;;6.00;99.90;;;;;;5044350;28;20222;-74
2022/09/21 00:54:51;;;;;;;2.78;2.55;;;6.00;99.90;;;;;;5034205;28;20177;-74
2022/09/21 00:57:20;;;;;;;2.47;2.38;;;6.10;99.90;;;;;;5042803;28;20226;-74
2022/09/21 00:59:49;;;;;;;2.80;2.60;;;6.10;99.90;;;;;;5040156;28;20181;-74
2022/09/21 01:02:15;;;;;;;3.15;2.83;;;6.20;99.90;;;;;;5042604;28;20207;-74
2022/09/21 01:04:42;;;;;;;3.38;3.08;;;6.30;99.90;;;;;;5040025;28;20199;-74
2022/09/21 01:07:12;;;;;;;3.60;3.30;;;6.10;99.90;;;;;;5042403;28;20287;-74
2022/09/21 01:09:41;;;;;;;2.88;2.63;;;5.90;99.90;;;;;;5035922;28;20651;-75
2022/09/21 01:12:28;;;;;;;2.70;2.53;;;5.80;99.90;;;;;;5031978;28;20200;-74
2022/09/21 01:15:18;;;;;;;3.00;2.80;;;5.70;99.90;;;;;;5041558;28;20180;-73
2022/09/21 01:18:11;;;;;;;3.15;2.95;;;5.70;99.90;;;;;;5041082;28;20223;-74
2022/09/21 01:20:58;;;;;;;3.25;2.95;;;5.70;99.90;;;;;;5036539;28;20255;-74
2022/09/21 01:23:39;;;;;;;3.10;2.80;;;5.70;99.90;;;;;;5045337;28;20176;-74
2022/09/21 01:26:21;;;;;;;2.80;2.60;;;5.60;99.90;;;;;;5025120;28;20279;-74
2022/09/21 01:29:06;;;;;;;3.65;3.00;;;5.50;99.90;;;;;;5039601;28;20637;-74
2022/09/21 01:31:44;;;;;;;4.30;3.30;;;5.50;99.90;;;;;;5045758;28;20207;-74
2022/09/21 01:34:25;;;;;;;3.00;2.78;;;5.40;99.90;;;;;;5045841;28;20199;-74
2022/09/21 01:36:54;;;;;;;3.75;2.72;;;5.40;99.90;;;;;;5025788;28;20200;-74
2022/09/21 01:39:22;;;;;;;4.50;2.95;;;5.30;99.90;;;;;;5040655;28;20176;-74
2022/09/21 01:41:51;;;;;;;2.58;2.47;;;5.30;99.90;;;;;;5043163;28;20290;-74
2022/09/21 01:44:24;;;;;;;3.65;2.95;;;5.30;99.90;;;;;;5036876;28;20195;-75
2022/09/21 01:46:51;;;;;;;3.08;2.80;;;5.20;99.90;;;;;;5041900;28;20230;-75
2022/09/21 01:49:23;;;;;;;3.42;3.13;;;5.20;99.90;;;;;;5041155;28;20186;-74
2022/09/21 01:52:01;;;;;;;3.38;3.08;;;5.20;99.90;;;;;;5043268;28;20210;-74
2022/09/21 01:54:40;;;;;;;3.13;2.88;;;5.20;99.90;;;;;;5024159;28;20259;-74
2022/09/21 01:57:10;;;;;;;3.35;3.10;;;5.20;99.90;;;;;;5035251;28;20180;-74
2022/09/21 01:59:57;;;;;;;3.20;3.00;;;5.30;99.90;;;;;;5035033;28;20249;-74
2022/09/21 02:02:44;;;;;;;3.38;3.17;;;5.30;99.90;;;;;;5032321;28;20191;-74
2022/09/21 02:05:12;;;;;;;3.28;3.08;;;5.20;99.90;;;;;;5027346;28;20254;-74
2022/09/21 02:08:15;;;;;;;4.00;3.65;;;5.20;99.90;;;;;;5018576;28;20907;-74
2022/09/21 02:10:50;;;;;;;3.75;3.45;;;5.10;99.90;;;;;;5023022;28;20208;-74
2022/09/21 02:13:17;;;;;;;3.50;3.20;;;5.10;99.90;;;;;;5035870;28;20176;-74
2022/09/21 02:16:05;;;;;;;3.05;2.85;;;5.10;99.90;;;;;;5039502;28;20181;-74
2022/09/21 02:18:39;;;;;;;2.40;2.28;;;5.10;99.90;;;;;;5035564;28;20243;-74
2022/09/21 02:21:14;;;;;;;2.60;2.40;;;5.10;99.90;;;;;;5034651;28;20237;-74
2022/09/21 02:24:12;;;;;;;2.72;2.53;;;5.10;99.90;;;;;;5038342;28;20187;-74
2022/09/21 02:27:01;;;;;;;2.60;2.50;;;5.10;99.90;;;;;;5030538;28;20246;-74
2022/09/21 02:29:31;;;;;;;4.60;2.95;;;5.10;99.90;;;;;;5035834;28;20189;-74
2022/09/21 02:32:11;;;;;;;3.05;2.85;;;5.10;99.90;;;;;;5048007;28;20211;-74
2022/09/21 02:34:48;;;;;;;2.95;2.72;;;5.10;99.90;;;;;;5036700;28;20553;-74
2022/09/21 02:37:43;;;;;;;3.08;2.40;;;5.20;99.90;;;;;;5039327;28;20233;-74
2022/09/21 02:40:28;;;;;;;2.97;2.78;;;5.20;99.90;;;;;;5034728;28;20171;-74
2022/09/21 02:43:02;;;;;;;3.63;2.67;;;5.20;99.90;;;;;;5033170;28;20680;-74
2022/09/21 02:45:33;;;;;;;2.38;2.28;;;5.20;99.90;;;;;;5044249;28;20210;-74
2022/09/21 02:48:27;;;;;;;2.60;2.50;;;5.30;99.90;;;;;;5040889;28;20210;-74
2022/09/21 02:50:56;;;;;;;3.17;2.97;;;5.30;99.90;;;;;;5036837;28;20276;-74
2022/09/21 02:53:26;;;;;;;3.33;3.03;;;5.40;99.90;;;;;;5036921;28;20219;-74
2022/09/21 02:55:55;;;;;;;3.50;3.20;;;5.40;99.90;;;;;;5047442;28;20206;-74
2022/09/21 02:58:23;;;;;;;3.55;3.30;;;5.50;99.90;;;;;;5032288;28;20177;-74
2022/09/21 03:00:49;;;;;;;3.22;3.00;;;5.50;99.90;;;;;;5037026;28;20204;-74
2022/09/21 03:03:20;;;;;;;4.55;3.30;;;5.50;99.90;;;;;;5039377;28;22415;-74
2022/09/21 03:05:49;;;;;;;3.28;3.00;;;5.50;99.90;;;;;;5041936;28;20197;-73
2022/09/21 03:08:21;;;;;;;3.15;2.78;;;5.40;99.90;;;;;;5041482;28;20180;-74
2022/09/21 03:10:47;;;;;;;3.15;2.95;;;5.40;99.90;;;;;;5036237;28;20204;-74
2022/09/21 03:13:13;;;;;;;3.70;3.40;;;5.40;99.90;;;;;;5046442;28;20169;-74
2022/09/21 03:15:40;;;;;;;3.65;3.25;;;5.50;99.90;;;;;;5039278;28;20268;-74
2022/09/21 03:18:10;;;;;;;3.30;3.03;;;5.50;99.90;;;;;;5039476;28;20188;-74
2022/09/21 03:20:37;;;;;;;3.35;3.15;;;5.50;99.90;;;;;;5039607;28;20223;-73
2022/09/21 03:23:02;;;;;;;3.83;3.55;;;5.50;99.90;;;;;;5036672;28;20680;-74
2022/09/21 03:25:29;;;;;;;3.97;3.58;;;5.60;99.90;;;;;;5041824;28;20216;-74
2022/09/21 03:27:55;;;;;;;3.92;3.60;;;5.60;99.90;;;;;;5028344;28;20186;-74
2022/09/21 03:30:22;;;;;;;4.85;3.13;;;5.70;99.90;;;;;;5044578;28;20220;-73
2022/09/21 03:32:50;;;;;;;3.55;3.25;;;5.70;99.90;;;;;;5041742;28;20260;-73
2022/09/21 03:35:16;;;;;;;3.22;3.03;;;5.80;99.90;;;;;;5032331;28;20221;-75
2022/09/21 03:37:42;;;;;;;3.83;3.47;;;5.80;99.90;;;;;;5038149;28;20192;-75
2022/09/21 03:40:08;;;;;;;3.28;3.08;;;5.80;99.90;;;;;;5043078;28;20522;-74
2022/09/21 03:42:34;;;;;;;3.33;3.13;;;5.80;99.90;;;;;;5041935;28;20249;-74
2022/09/21 03:45:00;;;;;;;3.50;3.20;;;5.90;99.90;;;;;;5033174;28;20188;-75
2022/09/21 03:47:25;;;;;;;4.28;3.60;;;5.90;99.90;;;;;;5042529;28;20222;-75
2022/09/21 03:49:51;;;;;;;3.40;3.10;;;6.00;99.90;;;;;;5036647;28;20173;-75
2022/09/21 03:52:16;;;;;;;3.50;3.20;;;6.00;99.90;;;;;;5043231;28;20195;-74
2022/09/21 03:54:42;;;;;;;6.75;3.80;;;6.10;99.90;;;;;;5041174;28;20204;-75
2022/09/21 03:57:07;;;;;;;5.60;3.10;;;6.00;99.90;;;;;;5041981;28;20211;-74
2022/09/21 03:59:34;;;;;;;9.77;3.60;;;5.90;99.90;;;;;;5041796;28;20215;-75
2022/09/21 04:02:00;;;;;;;4.47;3.00;;;5.90;99.90;;;;;;5035536;28;20199;-75
2022/09/21 04:04:25;;;;;;;3.95;3.55;;;5.90;99.90;;;;;;5042352;28;20179;-74
2022/09/21 04:06:51;;;;;;;12.55;3.35;;;6.00;99.90;;;;;;5033310;28;20207;-72
2022/09/21 04:09:16;;;;;;;11.82;4.32;;;6.10;99.90;;;;;;5019328;28;20553;-74
2022/09/21 04:11:44;;;;;;;5.30;3.65;;;6.00;99.90;;;;;;5030072;28;20243;-73
2022/09/21 04:14:11;;;;;;;3.53;3.22;;;5.90;99.90;;;;;;5035920;28;20172;-74
2022/09/21 04:16:36;;;;;;;3.47;3.28;;;5.90;99.90;;;;;;5019453;28;20288;-74
2022/09/21 04:19:02;;;;;;;4.68;3.33;;;5.90;99.90;;;;;;5022263;28;20263;-74
2022/09/21 04:21:28;;;;;;;3.47;3.22;;;5.90;99.90;;;;;;5021332;28;20216;-74
2022/09/21 04:23:55;;;;;;;4.32;3.70;;;5.80;99.90;;;;;;5017405;28;20189;-74
2022/09/21 04:26:26;;;;;;;3.85;3.47;;;5.80;99.90;;;;;;5012460;28;20684;-74
2022/09/21 04:28:53;;;;;;;4.85;3.50;;;5.90;99.90;;;;;;5015862;28;21560;-74
2022/09/21 04:31:20;;;;;;;3.95;3.58;;;5.90;99.90;;;;;;5012925;28;20501;-74
2022/09/21 04:33:50;;;;;;;7.25;4.57;;;5.90;99.90;;;;;;5019931;28;20262;-74
2022/09/21 04:36:20;;;;;;;3.80;3.50;;;5.90;99.90;;;;;;5016554;28;20179;-74
2022/09/21 04:38:46;;;;;;;4.63;3.83;;;6.00;99.90;;;;;;5027635;28;20264;-74
2022/09/21 04:41:12;;;;;;;6.03;3.35;;;6.00;99.90;;;;;;5017508;28;20208;-74
2022/09/21 04:43:41;;;;;;;3.42;2.72;;;5.90;99.90;;;;;;5016612;28;20209;-74
2022/09/21 04:46:08;;;;;;;6.18;3.17;;;6.00;99.90;;;;;;5025561;28;20228;-74
2022/09/21 04:48:34;;;;;;;6.63;3.20;;;6.00;99.90;;;;;;5028492;28;20199;-74
2022/09/21 04:51:00;;;;;;;2.75;2.55;;;5.90;99.90;;;;;;5021794;28;20201;-73
2022/09/21 04:53:26;;;;;;;3.42;3.20;;;5.90;99.90;;;;;;5024217;28;20176;-74
2022/09/21 04:55:51;;;;;;;7.15;3.47;;;5.90;99.90;;;;;;5032520;28;20179;-74
2022/09/21 04:58:17;;;;;;;2.65;2.45;;;6.00;99.90;;;;;;5033726;28;20189;-74
2022/09/21 05:00:43;;;;;;;2.40;2.25;;;6.00;99.90;;;;;;5028769;28;20291;-74
2022/09/21 05:03:08;;;;;;;7.72;2.47;;;5.90;99.90;;;;;;5044202;28;20191;-74
2022/09/21 05:05:34;;;;;;;5.45;2.45;;;5.90;99.90;;;;;;5045391;28;20203;-74
2022/09/21 05:07:59;;;;;;;2.95;2.72;;;5.90;99.90;;;;;;5042182;28;20726;-74
2022/09/21 05:10:25;;;;;;;7.75;2.60;;;5.90;99.90;;;;;;5039614;28;20192;-74
2022/09/21 05:12:51;;;;;;;5.32;2.72;;;5.90;99.90;;;;;;5036085;28;20181;-74
2022/09/21 05:15:17;;;;;;;7.60;3.17;;;5.90;99.90;;;;;;5029907;28;20268;-74
2022/09/21 05:17:43;;;;;;;24.70;3.80;;;5.90;99.90;;;;;;5029470;28;20283;-74
2022/09/21 05:20:10;;;;;;;9.15;2.97;;;5.80;99.90;;;;;;5022351;28;20715;-77
2022/09/21 05:22:36;;;;;;;4.20;2.60;;;5.80;99.90;;;;;;5038000;28;20655;-77
2022/09/21 05:25:02;;;;;;;3.00;2.80;;;5.80;99.90;;;;;;5048789;28;20184;-77
2022/09/21 05:27:27;;;;;;;11.63;3.10;;;5.80;99.90;;;;;;5034202;28;20192;-77
2022/09/21 05:29:53;;;;;;;3.30;2.85;;;5.80;99.90;;;;;;5035907;28;20255;-77
2022/09/21 05:32:39;;;;;;;4.53;2.60;;;5.80;99.90;;;;;;5029851;28;20201;-76
2022/09/21 05:35:16;;;;;;;15.07;3.13;;;5.70;99.90;;;;;;5027605;28;20696;-77
2022/09/21 05:37:58;;;;;;;4.63;2.97;;;5.70;99.90;;;;;;5022671;28;20662;-77
2022/09/21 05:40:24;;;;;;;10.02;3.25;;;5.70;99.90;;;;;;5023659;28;20303;-77
2022/09/21 05:42:50;;;;;;;2.45;2.35;;;5.70;99.90;;;;;;5024205;28;20718;-78
2022/09/21 05:45:17;;;;;;;5.53;3.10;;;5.80;99.90;;;;;;5032893;28;20561;-77
2022/09/21 05:48:07;;;;;;;3.42;2.55;;;5.90;99.90;;;;;;5041506;28;20194;-77
2022/09/21 05:50:39;;;;;;;5.97;3.35;;;5.90;99.90;;;;;;5033349;28;20671;-77
2022/09/21 05:53:41;;;;;;;16.65;4.22;;;6.00;99.90;;;;;;5030355;28;20176;-78
2022/09/21 05:56:50;;;;;;;3.15;2.95;;;6.00;99.90;;;;;;5031247;28;20192;-79
2022/09/21 05:59:50;;;;;;;6.20;3.42;;;6.10;99.90;;;;;;5035010;28;20195;-78
2022/09/21 06:02:39;;;;;;;3.22;3.03;;;6.10;99.90;;;;;;5035332;28;20218;-79
2022/09/21 06:05:10;;;;;;;4.22;3.63;;;6.10;99.90;;;;;;5032242;28;20183;-76
2022/09/21 06:07:36;;;;;;;4.00;3.67;;;6.10;99.90;;;;;;5026006;28;20670;-77
2022/09/21 06:10:01;;;;;;;3.60;3.35;;;6.20;99.90;;;;;;5034094;28;20176;-77
2022/09/21 06:12:27;;;;;;;4.38;3.28;;;6.40;99.90;;;;;;5023020;28;20191;-77
2022/09/21 06:14:54;;;;;;;10.23;3.53;;;6.50;99.90;;;;;;5047483;28;20242;-76
2022/09/21 06:17:20;;;;;;;9.50;3.08;;;6.60;99.90;;;;;;5024126;28;20177;-77
2022/09/21 06:19:45;;;;;;;4.68;3.55;;;6.70;99.90;;;;;;5022897;28;20185;-76
2022/09/21 06:22:11;;;;;;;3.40;3.10;;;6.80;99.90;;;;;;5021365;28;20224;-76
2022/09/21 06:24:36;;;;;;;5.43;3.17;;;6.90;99.90;;;;;;5020094;28;20591;-76
2022/09/21 06:27:02;;;;;;;3.28;3.08;;;7.10;99.90;;;;;;5035449;28;20204;-77
2022/09/21 06:29:28;;;;;;;3.80;3.50;;;7.20;99.90;;;;;;5042670;28;20165;-74
2022/09/21 06:31:53;;;;;;;6.85;3.35;;;7.40;99.90;;;;;;5027328;28;20621;-75
2022/09/21 06:34:19;;;;;;;14.30;3.45;;;7.50;99.90;;;;;;5033979;28;20180;-75
2022/09/21 06:36:45;;;;;;;3.58;3.22;;;7.60;99.90;;;;;;5037762;28;20194;-76
2022/09/21 06:39:10;;;;;;;8.80;3.50;;;7.80;99.90;;;;;;5034451;28;20194;-74
2022/09/21 06:41:36;;;;;;;5.13;3.15;;;7.90;99.90;;;;;;5026878;28;20240;-75
2022/09/21 06:44:02;;;;;;;8.32;3.55;;;7.90;99.90;;;;;;5021247;28;20199;-74
2022/09/21 06:46:27;;;;;;;3.13;2.70;;;8.20;99.90;;;;;;5032735;28;20213;-76
2022/09/21 06:48:53;;;;;;;3.30;3.10;;;8.40;99.90;;;;;;5027361;28;20259;-75
2022/09/21 06:51:20;;;;;;;3.78;3.47;;;8.50;99.90;;;;;;5030513;28;20201;-75
2022/09/21 06:53:46;;;;;;;5.13;3.30;;;8.50;99.90;;;;;;5014279;28;20185;-75
2022/09/21 06:56:12;;;;;;;3.72;3.35;;;8.50;99.90;;;;;;5032330;28;20662;-75
2022/09/21 06:58:38;;;;;;;3.97;3.50;;;8.70;99.90;;;;;;5032928;28;20188;-76
2022/09/21 07:01:08;;;;;;;3.50;3.20;;;8.80;99.90;;;;;;5026537;28;20249;-75
2022/09/21 07:03:35;;;;;;;2.92;2.83;;;8.90;99.90;;;;;;5032436;28;20187;-75
2022/09/21 07:06:01;;;;;;;3.75;3.45;;;9.10;99.90;;;;;;5039232;28;20277;-75
2022/09/21 07:08:26;;;;;;;5.55;3.25;;;9.10;99.90;;;;;;5034461;28;20220;-75
2022/09/21 07:10:52;;;;;;;4.00;3.60;;;9.20;99.90;;;;;;5035064;28;20204;-75
2022/09/21 07:13:18;;;;;;;3.72;3.15;;;9.40;99.90;;;;;;5044392;28;20173;-75
2022/09/21 07:15:43;;;;;;;3.30;3.00;;;9.50;99.90;;;;;;5031886;28;20188;-75
2022/09/21 07:18:13;;;;;;;3.92;3.58;;;9.60;99.90;;;;;;5020346;28;20189;-76
2022/09/21 07:20:39;;;;;;;3.72;3.50;;;9.80;99.90;;;;;;5018242;28;20197;-77
2022/09/21 07:23:15;;;;;;;3.53;3.22;;;9.90;99.90;;;;;;5025989;28;20173;-74
2022/09/21 07:25:42;;;;;;;3.40;3.20;;;10.00;99.90;;;;;;5038131;28;20262;-75
2022/09/21 07:28:09;;;;;;;6.05;3.70;;;9.90;99.90;;;;;;5025377;28;20184;-80
2022/09/21 07:30:36;;;;;;;5.68;3.80;;;10.20;99.90;;;;;;5040679;28;20204;-75
2022/09/21 07:33:03;;;;;;;3.85;3.55;;;10.20;99.90;;;;;;5034120;28;20233;-79
2022/09/21 07:35:28;;;;;;;3.33;3.13;;;10.30;99.90;;;;;;5023864;28;20277;-79
2022/09/21 07:37:57;;;;;;;3.60;3.30;;;10.40;99.90;;;;;;5022473;28;20265;-74
2022/09/21 07:40:23;;;;;;;4.40;3.83;;;10.70;99.90;;;;;;5030470;28;20460;-74
2022/09/21 07:42:48;;;;;;;3.50;3.30;;;10.90;99.90;;;;;;5034339;28;20200;-75
2022/09/21 07:45:14;;;;;;;3.78;3.35;;;11.30;99.90;;;;;;5040219;28;20179;-74
2022/09/21 07:47:40;;;;;;;4.43;3.90;;;11.40;99.90;;;;;;5044107;28;20184;-74
2022/09/21 07:50:07;;;;;;;5.68;3.90;;;11.40;99.90;;;;;;5038526;28;20254;-72
2022/09/21 07:52:33;;;;;;;3.60;3.30;;;11.30;99.90;;;;;;5027050;28;20590;-72
2022/09/21 07:54:59;;;;;;;3.17;2.97;;;11.10;99.90;;;;;;5028722;28;20181;-73
2022/09/21 08:00:10;;;;;;;3.63;3.33;;;10.70;99.90;;;;;;5034506;28;20279;-73
2022/09/21 08:02:36;;;;;;;4.03;3.72;;;10.60;99.90;;;;;;5025452;28;20181;-73
2022/09/21 08:05:01;;;;;;;3.55;3.25;;;10.90;99.90;;;;;;5035055;28;20250;-73
2022/09/21 08:07:27;;;;;;;3.35;3.15;;;11.30;99.90;;;;;;5040557;28;20216;-73
2022/09/21 08:09:53;;;;;;;4.10;3.40;;;11.70;99.90;;;;;;5037746;28;20180;-73
2022/09/21 08:12:19;;;;;;;3.13;2.92;;;11.80;99.90;;;;;;5042377;28;20670;-73
2022/09/21 08:14:46;;;;;;;3.08;2.70;;;12.00;99.90;;;;;;5041535;28;20228;-73
2022/09/21 08:17:12;;;;;;;3.13;2.92;;;11.90;99.90;;;;;;5041011;28;20218;-73
2022/09/21 08:19:38;;;;;;;3.67;3.30;;;11.90;99.90;;;;;;5044714;28;20243;-73
2022/09/21 08:22:04;;;;;;;3.72;3.22;;;11.60;99.90;;;;;;5044027;28;20270;-73
2022/09/21 08:24:30;;;;;;;4.43;4.03;;;11.30;99.90;;;;;;5046784;28;20176;-73
2022/09/21 08:26:56;;;;;;;4.20;3.40;;;11.00;99.90;;;;;;5041612;28;20310;-73
2022/09/21 08:29:23;;;;;;;3.67;3.47;;;10.60;99.90;;;;;;5041247;28;20698;-73
2022/09/21 08:31:49;;;;;;;6.43;4.47;;;10.50;99.90;;;;;;5045909;28;20283;-73
2022/09/21 08:34:15;;;;;;;4.07;3.78;;;10.30;99.90;;;;;;5044664;28;20266;-73
2022/09/21 08:36:40;;;;;;;3.70;3.40;;;10.10;99.90;;;;;;5050393;28;20179;-73
2022/09/21 08:39:07;;;;;;;5.47;3.83;;;10.20;99.90;;;;;;5042424;28;20180;-73
2022/09/21 08:42:05;;;;;;;3.60;3.30;;;10.30;99.90;;;;;;5050834;28;20294;-72
2022/09/21 08:44:51;;;;;;;3.58;3.38;;;10.50;99.90;;;;;;5044092;28;20204;-74
2022/09/21 08:47:27;;;;;;;4.20;3.90;;;11.60;99.90;;;;;;5034365;28;20695;-74
2022/09/21 08:49:57;;;;;;;4.40;3.85;;;13.90;99.90;;;;;;5046268;28;20191;-74
2022/09/21 08:52:24;;;;;;;3.72;3.45;;;16.60;99.90;;;;;;5047271;28;20188;-74
2022/09/21 08:54:50;;;;;;;2.78;2.67;;;18.80;99.90;;;;;;5046267;28;20252;-74
2022/09/21 08:57:18;;;;;;;3.28;3.08;;;20.70;97.00;;;;;;5039931;28;20367;-74
2022/09/21 08:59:48;;;;;;;2.65;2.55;;;21.60;89.70;;;;;;5043060;28;20240;-73
2022/09/21 09:02:50;;;;;;;3.30;3.00;;;22.40;85.50;;;;;;5047115;28;20195;-74
2022/09/21 09:05:45;;;;;;;2.92;2.72;;;23.10;77.80;;;;;;5031338;28;20181;-74
2022/09/21 09:08:31;;;;;;;3.17;2.92;;;22.30;78.70;;;;;;5041880;28;20268;-74
2022/09/21 09:11:14;;;;;;;3.05;2.85;;;22.00;79.10;;;;;;5046157;28;21094;-74
2022/09/21 09:14:25;;;;;;;2.72;2.63;;;23.10;76.10;;;;;;5044518;28;20199;-74
2022/09/21 09:17:09;;;;;;;3.15;2.95;;;24.70;71.60;;;;;;5044439;28;20188;-74
2022/09/21 09:19:49;;;;;;;3.45;3.15;;;25.60;67.60;;;;;;5046480;28;20171;-74
2022/09/21 09:22:52;;;;;;;2.92;2.72;;;26.90;64.50;;;;;;5040892;28;20331;-74
2022/09/21 09:25:21;;;;;;;3.08;2.88;;;27.70;59.80;;;;;;5034741;28;20194;-74
2022/09/21 09:27:52;;;;;;;2.70;2.60;;;28.30;57.00;;;;;;5043876;28;20675;-72
2022/09/21 09:30:22;;;;;;;2.35;2.15;;;28.80;55.90;;;;;;5047325;28;20295;-73
2022/09/21 09:33:02;;;;;;;2.65;2.45;;;28.90;54.70;;;;;;5039984;28;20660;-73
2022/09/21 09:35:32;;;;;;;2.70;2.55;;;29.10;54.50;;;;;;5044447;28;20237;-72
2022/09/21 09:38:04;;;;;;;3.00;2.80;;;29.50;53.70;;;;;;5045317;28;20176;-72
2022/09/21 09:40:53;;;;;;;2.47;2.38;;;29.90;51.90;;;;;;5044221;28;20195;-72
2022/09/21 09:44:00;;;;;;;2.40;2.30;;;29.70;51.70;;;;;;5032587;28;20224;-72
2022/09/21 09:47:40;;;;;;;2.55;2.33;;;29.70;51.60;;;;;;5043676;28;20204;-72
2022/09/21 09:50:18;;;;;;;3.10;2.28;;;29.50;51.90;;;;;;4945024;29;20182;-72
2022/09/21 09:52:46;;;;;;;3.65;3.35;;;30.60;50.20;;;;;;5029063;28;20192;-72
2022/09/21 09:55:16;;;;;;;3.00;2.50;;;30.90;49.80;;;;;;5044920;28;20207;-72
2022/09/21 09:57:42;;;;;;;2.50;2.40;;;31.00;49.20;;;;;;5042751;28;20183;-72
2022/09/21 10:00:13;;;;;;;2.78;2.40;;;31.80;48.60;;;;;;5044940;28;20225;-72
2022/09/21 10:02:49;;;;;;;3.47;3.17;;;31.40;48.80;;;;;;5044215;28;20229;-72
2022/09/21 10:05:32;;;;;;;5.18;3.38;;;31.70;48.30;;;;;;5044935;28;20178;-72
2022/09/21 10:07:59;;;;;;;4.72;3.30;;;31.50;48.70;;;;;;5037051;28;20664;-72
2022/09/21 10:10:27;;;;;;;4.57;2.70;;;32.00;47.60;;;;;;5033789;28;20188;-72
2022/09/21 10:12:56;;;;;;;2.97;2.72;;;32.20;47.40;;;;;;5049240;28;20670;-72
2022/09/21 10:15:23;;;;;;;2.53;2.42;;;32.40;46.90;;;;;;5039574;28;20281;-70
2022/09/21 10:18:02;;;;;;;2.50;2.10;;;32.30;46.70;;;;;;5043734;28;20231;-70
2022/09/21 10:20:29;;;;;;;6.35;3.25;;;33.00;47.00;;;;;;5043289;28;20206;-70
2022/09/21 10:22:56;;;;;;;2.88;2.67;;;33.10;45.60;;;;;;5044082;28;20180;-69
2022/09/21 10:25:21;;;;;;;3.58;3.08;;;32.70;44.90;;;;;;5041648;28;20209;-70
2022/09/21 10:27:49;;;;;;;3.08;2.88;;;31.80;45.70;;;;;;5042899;28;20649;-70
2022/09/21 10:30:37;;;;;;;3.88;3.53;;;31.80;46.80;;;;;;5046441;28;20180;-70
2022/09/21 10:33:16;;;;;;;3.38;2.97;;;32.30;46.70;;;;;;5026588;28;20179;-70
2022/09/21 10:35:51;;;;;;;7.28;2.85;;;33.10;45.00;;;;;;5034788;28;20258;-69
2022/09/21 10:38:18;;;;;;;3.33;3.05;;;33.10;44.50;;;;;;5045000;28;20211;-70
2022/09/21 10:40:45;;;;;;;6.80;2.72;;;33.30;45.10;;;;;;5035357;28;20749;-70
2022/09/21 10:43:28;;;;;;;2.90;2.33;;;33.30;45.00;;;;;;5042530;28;20199;-70
2022/09/21 10:45:56;;;;;;;2.38;2.17;;;33.80;43.30;;;;;;5037414;28;20217;-70
2022/09/21 10:48:24;;;;;;;3.33;2.20;;;33.60;44.60;;;;;;5044281;28;20171;-70
2022/09/21 10:50:50;;;;;;;2.20;2.10;;;33.90;43.50;;;;;;5035038;28;20245;-70
2022/09/21 10:53:31;;;;;;;2.28;2.17;;;33.90;42.60;;;;;;5037769;28;20182;-70
2022/09/21 10:56:19;;;;;;;2.03;1.92;;;32.80;44.20;;;;;;5041213;28;20184;-70
2022/09/21 10:59:10;;;;;;;2.25;1.83;;;31.90;43.90;;;;;;5047270;28;20270;-70
2022/09/21 11:01:41;;;;;;;2.60;2.05;;;28.90;47.40;;;;;;5031763;28;20713;-72
2022/09/21 11:04:15;;;;;;;3.42;1.98;;;27.00;50.80;;;;;;5040718;28;20654;-72
2022/09/21 11:06:49;;;;;;;2.70;1.90;;;27.70;51.40;;;;;;5038416;28;20199;-72
2022/09/21 11:09:25;;;;;;;2.10;2.00;;;29.70;48.00;;;;;;5030956;28;20179;-72
2022/09/21 11:12:17;;;;;;;1.92;1.83;;;31.80;45.50;;;;;;5042019;28;20225;-72
2022/09/21 11:14:48;;;;;;;2.15;1.80;;;32.50;43.60;;;;;;5044871;28;20550;-70
2022/09/21 11:17:42;;;;;;;3.15;2.00;;;32.00;42.70;;;;;;5040305;28;20700;-70
2022/09/21 11:20:10;;;;;;;2.50;2.30;;;30.30;45.00;;;;;;5033829;28;20544;-72
2022/09/21 11:23:03;;;;;;;2.70;2.40;;;28.10;49.00;;;;;;5029871;28;20880;-72
2022/09/21 11:25:49;;;;;;;10.02;2.60;;;26.30;53.00;;;;;;5040045;28;20177;-72
2022/09/21 11:28:42;;;;;;;5.47;2.38;;;24.90;55.90;;;;;;5022177;28;20219;-72
2022/09/21 11:31:38;;;;;;;8.23;3.17;;;23.80;55.30;;;;;;5033896;28;20212;-72
2022/09/21 11:34:47;;;;;;;2.58;1.88;;;23.10;57.40;;;;;;5037693;28;20175;-72
2022/09/21 11:37:39;;;;;;;2.95;2.75;;;22.00;59.50;;;;;;5034750;28;20251;-72
2022/09/21 11:40:18;;;;;;;2.95;2.47;;;21.20;62.50;;;;;;5029105;28;20187;-75
2022/09/21 11:42:56;;;;;;;2.60;1.85;;;20.50;65.90;;;;;;5041720;28;20267;-75
2022/09/21 11:45:45;;;;;;;2.03;1.90;;;20.00;67.50;;;;;;5040919;28;20187;-74
2022/09/21 11:48:36;;;;;;;3.72;2.42;;;19.70;67.40;;;;;;5043616;28;20175;-74
2022/09/21 11:51:22;;;;;;;1.65;1.55;;;19.50;68.70;;;;;;5031792;28;20192;-74
2022/09/21 11:54:19;;;;;;;2.00;1.90;;;19.50;68.00;;;;;;5032912;28;20211;-74
2022/09/21 11:57:18;;;;;;;3.47;1.85;;;19.40;68.70;;;;;;5038895;28;20200;-74
2022/09/21 12:00:14;;;;;;;3.65;2.95;;;19.50;70.00;;;;;;5044095;28;20757;-74
2022/09/21 12:03:11;;;;;;;2.58;2.38;;;19.60;71.10;;;;;;5034175;28;20184;-74
2022/09/21 12:05:58;;;;;;;4.00;2.60;;;19.80;71.40;;;;;;5042548;28;20299;-75
2022/09/21 12:08:36;;;;;;;3.25;2.60;;;19.80;72.90;;;;;;5034722;28;20169;-77
2022/09/21 12:11:23;;;;;;;2.88;2.58;;;19.90;73.30;;;;;;5022638;28;20217;-76
2022/09/21 12:13:59;;;;;;;3.28;2.30;;;20.10;70.60;;;;;;5040241;28;20578;-73
2022/09/21 12:16:37;;;;;;;3.15;2.30;;;21.90;67.10;;;;;;5042875;28;20759;-74
2022/09/21 12:19:15;;;;;;;1.90;1.80;;;24.70;62.90;;;;;;5025318;28;20189;-71
2022/09/21 12:21:47;;;;;;;2.15;1.95;;;27.40;56.80;;;;;;5040072;28;20235;-71
2022/09/21 12:24:15;;;;;;;1.70;1.70;;;29.10;52.10;;;;;;5036642;28;20187;-71
2022/09/21 12:26:45;;;;;;;2.40;1.90;;;29.90;49.70;;;;;;5042016;28;20218;-71
2022/09/21 12:29:27;;;;;;;1.90;1.80;;;30.40;47.60;;;;;;5030989;28;20188;-72
2022/09/21 12:32:11;;;;;;;2.13;1.80;;;31.10;45.60;;;;;;5044298;28;20210;-69
2022/09/21 12:34:46;;;;;;;1.88;1.77;;;31.10;45.30;;;;;;5036209;28;20198;-69
2022/09/21 12:37:23;;;;;;;1.65;1.50;;;31.50;46.30;;;;;;5043684;28;20228;-69
2022/09/21 12:40:16;;;;;;;1.50;1.40;;;32.20;43.80;;;;;;5033106;28;20184;-70
2022/09/21 12:42:54;;;;;;;1.60;1.50;;;32.10;43.80;;;;;;5040961;28;20183;-69
2022/09/21 12:45:31;;;;;;;1.45;1.40;;;31.90;43.70;;;;;;5041378;28;20233;-69
2022/09/21 12:48:18;;;;;;;1.30;1.20;;;32.00;42.70;;;;;;5036643;28;20180;-71
2022/09/21 12:51:10;;;;;;;1.30;1.10;;;32.10;43.80;;;;;;5033678;28;20254;-71
2022/09/21 12:53:40;;;;;;;2.58;1.30;;;32.40;42.20;;;;;;5043049;28;20172;-71
2022/09/21 12:56:21;;;;;;;2.05;1.08;;;32.70;40.00;;;;;;5036028;28;20184;-71
2022/09/21 12:58:59;;;;;;;1.00;1.00;;;33.10;39.50;;;;;;5037073;28;20236;-71
2022/09/21 13:01:43;;;;;;;1.10;1.10;;;33.20;39.30;;;;;;5039026;28;20249;-72
2022/09/21 13:04:29;;;;;;;2.40;1.40;;;33.00;40.20;;;;;;5032524;28;20172;-71
2022/09/21 13:07:06;;;;;;;1.10;1.10;;;32.70;40.40;;;;;;5035269;28;20282;-72
2022/09/21 13:09:36;;;;;;;2.42;1.15;;;31.40;40.60;;;;;;5036483;28;20171;-69
2022/09/21 13:12:07;;;;;;;1.25;1.10;;;30.30;43.70;;;;;;5028064;28;20199;-69
2022/09/21 13:14:35;;;;;;;2.80;1.30;;;28.60;46.00;;;;;;5032648;28;20181;-69
2022/09/21 13:17:03;;;;;;;1.35;1.33;;;27.00;48.30;;;;;;5041199;28;20660;-69
2022/09/21 13:19:32;;;;;;;2.90;1.05;;;25.60;49.10;;;;;;5045722;28;20259;-69
2022/09/21 13:22:18;;;;;;;2.42;0.85;;;24.40;50.00;;;;;;5038206;28;20294;-73
2022/09/21 13:25:00;;;;;;;4.03;1.42;;;23.50;52.40;;;;;;5037006;28;20188;-73
2022/09/21 13:27:59;;;;;;;1.40;1.40;;;22.90;54.50;;;;;;5044487;28;20280;-73